首页
METAR-TAF:

METAR-TAF

机场 :

埃尔多拉多国际机场

波哥大, 哥伦比亚

纬度: 04-43N, 经度: 074-09W, 海拔: 2547米

当前天气观测

该预报发布于16分钟前的01:00 UTC
风速5节,风向东南
温度 15°C
湿度 63%
气压 1026 hPa
能见度10公里或以上
少量云层高于2000英尺
散云层高于20000英尺

METAR: SKBO 130100Z 13005KT 9999 FEW020 SCT200 15/08 A3030

时间: 20:16 (01:16 UTC)

预报

该预报发布于2小时和16分钟前的23:00 UTC
预报有效从13日的 00点(UTC)到 13日的 24点(UTC)
风速7节,风向北转东北
能见度10公里或以上
散云层高于2000英尺
散云层高于20000英尺
短暂存在
从 13日的 00点(UTC)到 13日的 02点(UTC)
成为
从 13日的 01点(UTC)到 13日的 03点(UTC)
风速2节,风向多变
短暂存在
从 13日的 03点(UTC)到 13日的 06点(UTC)
散云层高于1700英尺, 塔状积云.
毛毛雨
短暂存在
从 13日的 09点(UTC)到 13日的 13点(UTC)
能見度: 5000
散云层高于1300英尺
碎片雾
短暂存在
从 13日的 19点(UTC)到 13日的 23点(UTC)
散云层高于1700英尺, 塔状积云.
附近有阵雨

TAF: SKBO 122300Z 1300/1324 03007KT 9999 SCT020 SCT200 TEMPO 1300/1302 RA BECMG 1301/1303 VRB02KT TEMPO 1303/1306 DZ SCT017TCU TEMPO 1309/1313 5000 BCFG SCT013 TEMPO 1319/1323 VCSH SCT017TCU TX21/1318Z TN10/1311Z

超过4000个机场的气象观测和天气预报(METAR&TAF报告)。

可查询的气象台以黄色和红色小点在地图上表示。

将鼠标移到小点上方,可查看气象台名称。

然后点击查看天气观测和预报。

如需切换地图:点击带黑十字的绿色按钮放大地图;点击带横线的绿色按钮缩小地图;或者点击绿色箭头查看邻近地区的地图。


METAR-TAF: